sensor_id;sensor_type;location;lat;lon;timestamp;pressure;altitude;pressure_sealevel;temperature;humidity
73024;BME280;72676;47.526;8.538;2024-01-16T00:02:00;95917.81;;;1.27;65.86
73024;BME280;72676;47.526;8.538;2024-01-16T00:04:27;95911.38;;;1.34;66.10
73024;BME280;72676;47.526;8.538;2024-01-16T00:06:56;95926.47;;;1.26;65.88
73024;BME280;72676;47.526;8.538;2024-01-16T00:09:22;95929.25;;;1.23;65.97
73024;BME280;72676;47.526;8.538;2024-01-16T00:11:49;95920.88;;;1.33;65.93
73024;BME280;72676;47.526;8.538;2024-01-16T00:14:16;95926.59;;;1.38;65.50
73024;BME280;72676;47.526;8.538;2024-01-16T00:16:43;95926.59;;;1.38;64.86
73024;BME280;72676;47.526;8.538;2024-01-16T00:19:11;95920.59;;;1.38;65.17
73024;BME280;72676;47.526;8.538;2024-01-16T00:21:42;95922.63;;;1.33;64.81
73024;BME280;72676;47.526;8.538;2024-01-16T00:24:09;95932.00;;;1.34;65.15
73024;BME280;72676;47.526;8.538;2024-01-16T00:26:35;95924.09;;;1.37;64.75
73024;BME280;72676;47.526;8.538;2024-01-16T00:29:02;95931.00;;;1.36;65.18
73024;BME280;72676;47.526;8.538;2024-01-16T00:31:28;95927.69;;;1.34;65.34
73024;BME280;72676;47.526;8.538;2024-01-16T00:33:55;95923.53;;;1.18;65.56
73024;BME280;72676;47.526;8.538;2024-01-16T00:36:21;95924.72;;;1.12;65.13
73024;BME280;72676;47.526;8.538;2024-01-16T00:38:48;95935.97;;;0.82;65.44
73024;BME280;72676;47.526;8.538;2024-01-16T00:41:15;95941.38;;;0.63;65.78
73024;BME280;72676;47.526;8.538;2024-01-16T00:43:43;95938.47;;;0.69;66.20
73024;BME280;72676;47.526;8.538;2024-01-16T00:46:09;95940.25;;;0.53;67.34
73024;BME280;72676;47.526;8.538;2024-01-16T00:48:36;95936.75;;;0.54;67.70
73024;BME280;72676;47.526;8.538;2024-01-16T00:51:03;95939.13;;;0.57;67.02
73024;BME280;72676;47.526;8.538;2024-01-16T00:53:30;95935.22;;;0.36;67.59
73024;BME280;72676;47.526;8.538;2024-01-16T00:55:57;95936.66;;;0.11;68.56
73024;BME280;72676;47.526;8.538;2024-01-16T00:58:24;95937.56;;;0.10;68.89
73024;BME280;72676;47.526;8.538;2024-01-16T01:00:50;95937.94;;;0.18;68.81
73024;BME280;72676;47.526;8.538;2024-01-16T01:03:17;95951.34;;;0.24;68.41
73024;BME280;72676;47.526;8.538;2024-01-16T01:05:43;95947.09;;;-0.23;69.26
73024;BME280;72676;47.526;8.538;2024-01-16T01:08:10;95948.44;;;-0.16;69.16
73024;BME280;72676;47.526;8.538;2024-01-16T01:10:36;95944.78;;;0.19;68.12
73024;BME280;72676;47.526;8.538;2024-01-16T01:13:03;95942.63;;;-0.04;68.78
73024;BME280;72676;47.526;8.538;2024-01-16T01:15:30;95939.75;;;0.31;67.62
73024;BME280;72676;47.526;8.538;2024-01-16T01:17:56;95952.19;;;0.54;67.31
73024;BME280;72676;47.526;8.538;2024-01-16T01:20:23;95949.66;;;0.68;66.53
73024;BME280;72676;47.526;8.538;2024-01-16T01:22:49;95963.16;;;0.58;66.02
73024;BME280;72676;47.526;8.538;2024-01-16T01:25:16;95967.28;;;0.76;65.91
73024;BME280;72676;47.526;8.538;2024-01-16T01:27:42;95964.91;;;0.87;65.34
73024;BME280;72676;47.526;8.538;2024-01-16T01:30:09;95969.53;;;0.96;65.43
73024;BME280;72676;47.526;8.538;2024-01-16T01:32:37;95962.94;;;1.06;64.76
73024;BME280;72676;47.526;8.538;2024-01-16T01:35:05;95962.94;;;1.06;64.97
73024;BME280;72676;47.526;8.538;2024-01-16T01:37:32;95967.69;;;0.98;65.46
73024;BME280;72676;47.526;8.538;2024-01-16T01:39:58;95971.97;;;1.13;65.35
73024;BME280;72676;47.526;8.538;2024-01-16T01:42:24;95964.78;;;1.18;64.84
73024;BME280;72676;47.526;8.538;2024-01-16T01:44:51;95966.34;;;1.20;64.66
73024;BME280;72676;47.526;8.538;2024-01-16T01:47:17;95973.94;;;1.23;64.14
73024;BME280;72676;47.526;8.538;2024-01-16T01:49:44;95972.16;;;1.24;64.47
73024;BME280;72676;47.526;8.538;2024-01-16T01:52:11;95971.34;;;1.23;64.22
73024;BME280;72676;47.526;8.538;2024-01-16T01:54:38;95971.91;;;1.28;63.93
73024;BME280;72676;47.526;8.538;2024-01-16T01:57:07;95966.75;;;1.28;64.13
73024;BME280;72676;47.526;8.538;2024-01-16T01:59:34;95969.25;;;1.30;64.33
73024;BME280;72676;47.526;8.538;2024-01-16T02:02:02;95963.88;;;1.33;63.82
73024;BME280;72676;47.526;8.538;2024-01-16T02:04:30;95973.28;;;1.34;63.92
73024;BME280;72676;47.526;8.538;2024-01-16T02:06:58;95982.78;;;1.33;63.74
73024;BME280;72676;47.526;8.538;2024-01-16T02:09:24;95982.66;;;1.21;63.79
73024;BME280;72676;47.526;8.538;2024-01-16T02:11:51;95975.22;;;0.87;64.03
73024;BME280;72676;47.526;8.538;2024-01-16T02:14:17;95976.69;;;0.91;64.46
73024;BME280;72676;47.526;8.538;2024-01-16T02:16:44;95971.97;;;1.13;63.94
73024;BME280;72676;47.526;8.538;2024-01-16T02:19:11;95969.84;;;1.05;63.74
73024;BME280;72676;47.526;8.538;2024-01-16T02:21:48;95977.66;;;1.18;63.50
73024;BME280;72676;47.526;8.538;2024-01-16T02:24:18;95964.50;;;1.22;63.89
73024;BME280;72676;47.526;8.538;2024-01-16T02:26:45;95956.34;;;1.30;63.62
73024;BME280;72676;47.526;8.538;2024-01-16T02:29:12;95958.81;;;1.31;63.81
73024;BME280;72676;47.526;8.538;2024-01-16T02:31:39;95951.00;;;1.33;64.38
73024;BME280;72676;47.526;8.538;2024-01-16T02:34:05;95950.81;;;1.36;63.91
73024;BME280;72676;47.526;8.538;2024-01-16T02:36:32;95946.56;;;1.35;64.40
73024;BME280;72676;47.526;8.538;2024-01-16T02:38:59;95952.47;;;1.37;64.31
73024;BME280;72676;47.526;8.538;2024-01-16T02:41:26;95943.06;;;1.36;64.21
73024;BME280;72676;47.526;8.538;2024-01-16T02:43:52;95940.47;;;1.36;63.78
73024;BME280;72676;47.526;8.538;2024-01-16T02:46:19;95936.09;;;1.38;64.10
73024;BME280;72676;47.526;8.538;2024-01-16T02:48:46;95940.84;;;1.44;63.70
73024;BME280;72676;47.526;8.538;2024-01-16T02:51:13;95932.59;;;1.39;63.88
73024;BME280;72676;47.526;8.538;2024-01-16T02:53:39;95930.09;;;1.37;63.53
73024;BME280;72676;47.526;8.538;2024-01-16T02:56:08;95933.47;;;1.24;64.28
73024;BME280;72676;47.526;8.538;2024-01-16T02:58:35;95931.47;;;1.29;64.38
73024;BME280;72676;47.526;8.538;2024-01-16T03:01:01;95927.78;;;1.33;64.14
73024;BME280;72676;47.526;8.538;2024-01-16T03:03:29;95939.94;;;1.31;64.39
73024;BME280;72676;47.526;8.538;2024-01-16T03:05:55;95945.56;;;1.23;63.86
73024;BME280;72676;47.526;8.538;2024-01-16T03:08:22;95940.69;;;1.19;64.55
73024;BME280;72676;47.526;8.538;2024-01-16T03:10:49;95932.47;;;1.26;64.12
73024;BME280;72676;47.526;8.538;2024-01-16T03:13:16;95940.28;;;1.25;64.30
73024;BME280;72676;47.526;8.538;2024-01-16T03:15:42;95932.84;;;1.20;64.69
73024;BME280;72676;47.526;8.538;2024-01-16T03:18:08;95932.75;;;1.22;63.88
73024;BME280;72676;47.526;8.538;2024-01-16T03:20:35;95929.59;;;1.17;63.96
73024;BME280;72676;47.526;8.538;2024-01-16T03:23:02;95928.41;;;1.08;64.84
73024;BME280;72676;47.526;8.538;2024-01-16T03:25:28;95931.59;;;0.98;64.37
73024;BME280;72676;47.526;8.538;2024-01-16T03:27:55;95934.09;;;0.99;64.73
73024;BME280;72676;47.526;8.538;2024-01-16T03:30:22;95943.50;;;1.00;64.11
73024;BME280;72676;47.526;8.538;2024-01-16T03:32:48;95938.00;;;1.06;63.70
73024;BME280;72676;47.526;8.538;2024-01-16T03:35:15;95939.72;;;1.06;63.72
73024;BME280;72676;47.526;8.538;2024-01-16T03:37:42;95938.81;;;1.07;63.96
73024;BME280;72676;47.526;8.538;2024-01-16T03:40:08;95936.59;;;1.01;63.67
73024;BME280;72676;47.526;8.538;2024-01-16T03:42:35;95933.63;;;0.93;64.40
73024;BME280;72676;47.526;8.538;2024-01-16T03:45:02;95935.63;;;0.88;64.23
73024;BME280;72676;47.526;8.538;2024-01-16T03:47:28;95926.50;;;0.82;64.60
73024;BME280;72676;47.526;8.538;2024-01-16T03:49:55;95928.91;;;0.85;64.30
73024;BME280;72676;47.526;8.538;2024-01-16T03:52:21;95922.28;;;0.95;63.95
73024;BME280;72676;47.526;8.538;2024-01-16T03:54:48;95931.78;;;0.95;63.79
73024;BME280;72676;47.526;8.538;2024-01-16T03:57:14;95936.09;;;0.94;63.03
73024;BME280;72676;47.526;8.538;2024-01-16T03:59:41;95923.13;;;0.96;63.77
73024;BME280;72676;47.526;8.538;2024-01-16T04:02:07;95918.63;;;0.99;63.32
73024;BME280;72676;47.526;8.538;2024-01-16T04:04:34;95921.69;;;0.92;63.48
73024;BME280;72676;47.526;8.538;2024-01-16T04:07:01;95912.91;;;0.94;63.82
73024;BME280;72676;47.526;8.538;2024-01-16T04:09:28;95908.69;;;0.93;63.32
73024;BME280;72676;47.526;8.538;2024-01-16T04:11:55;95908.69;;;0.93;63.70
73024;BME280;72676;47.526;8.538;2024-01-16T04:14:21;95913.03;;;0.93;63.00
73024;BME280;72676;47.526;8.538;2024-01-16T04:16:48;95910.44;;;0.93;63.02
73024;BME280;72676;47.526;8.538;2024-01-16T04:19:15;95901.59;;;0.83;63.14
73024;BME280;72676;47.526;8.538;2024-01-16T04:21:41;95907.28;;;0.74;63.52
73024;BME280;72676;47.526;8.538;2024-01-16T04:24:08;95915.09;;;0.72;63.35
73024;BME280;72676;47.526;8.538;2024-01-16T04:26:36;95916.13;;;0.54;64.00
73024;BME280;72676;47.526;8.538;2024-01-16T04:29:03;95927.44;;;0.52;63.98
73024;BME280;72676;47.526;8.538;2024-01-16T04:31:32;95923.94;;;0.53;63.76
73024;BME280;72676;47.526;8.538;2024-01-16T04:34:04;95913.63;;;0.53;64.53
73024;BME280;72676;47.526;8.538;2024-01-16T04:36:31;95912.16;;;0.49;64.25
73024;BME280;72676;47.526;8.538;2024-01-16T04:38:57;95909.53;;;0.35;64.27
73024;BME280;72676;47.526;8.538;2024-01-16T04:41:26;95905.16;;;0.37;64.62
73024;BME280;72676;47.526;8.538;2024-01-16T04:43:53;95901.13;;;0.47;64.39
73024;BME280;72676;47.526;8.538;2024-01-16T04:46:19;95901.41;;;0.56;64.23
73024;BME280;72676;47.526;8.538;2024-01-16T04:48:46;95905.56;;;0.59;64.12
73024;BME280;72676;47.526;8.538;2024-01-16T04:51:12;95904.56;;;0.61;64.16
73024;BME280;72676;47.526;8.538;2024-01-16T04:53:39;95906.69;;;0.55;64.13
73024;BME280;72676;47.526;8.538;2024-01-16T04:56:07;95900.50;;;0.57;64.11
73024;BME280;72676;47.526;8.538;2024-01-16T04:58:33;95896.19;;;0.58;63.97
73024;BME280;72676;47.526;8.538;2024-01-16T05:00:59;95897.66;;;0.62;64.63
73024;BME280;72676;47.526;8.538;2024-01-16T05:03:26;95897.66;;;0.62;64.79
73024;BME280;72676;47.526;8.538;2024-01-16T05:05:53;95898.69;;;0.59;64.09
73024;BME280;72676;47.526;8.538;2024-01-16T05:08:20;95895.34;;;0.57;64.08
73024;BME280;72676;47.526;8.538;2024-01-16T05:10:46;95894.53;;;0.57;64.49
73024;BME280;72676;47.526;8.538;2024-01-16T05:13:13;95886.88;;;0.55;64.71
73024;BME280;72676;47.526;8.538;2024-01-16T05:15:40;95883.22;;;0.59;64.43
73024;BME280;72676;47.526;8.538;2024-01-16T05:18:07;95881.44;;;0.46;64.72
73024;BME280;72676;47.526;8.538;2024-01-16T05:20:33;95879.69;;;0.46;64.73
73024;BME280;72676;47.526;8.538;2024-01-16T05:23:00;95869.31;;;0.48;65.00
73024;BME280;72676;47.526;8.538;2024-01-16T05:25:26;95864.81;;;0.51;65.08
73024;BME280;72676;47.526;8.538;2024-01-16T05:27:53;95861.59;;;0.62;64.31
73024;BME280;72676;47.526;8.538;2024-01-16T05:30:19;95864.53;;;0.56;64.72
73024;BME280;72676;47.526;8.538;2024-01-16T05:32:46;95859.81;;;0.48;64.87
73024;BME280;72676;47.526;8.538;2024-01-16T05:35:12;95854.78;;;0.47;65.38
73024;BME280;72676;47.526;8.538;2024-01-16T05:37:39;95859.16;;;0.45;64.96
73024;BME280;72676;47.526;8.538;2024-01-16T05:40:06;95854.38;;;0.39;64.42
73024;BME280;72676;47.526;8.538;2024-01-16T05:42:34;95857.75;;;0.39;64.74
73024;BME280;72676;47.526;8.538;2024-01-16T05:45:01;95859.22;;;0.29;64.53
73024;BME280;72676;47.526;8.538;2024-01-16T05:47:28;95860.41;;;0.24;64.82
73024;BME280;72676;47.526;8.538;2024-01-16T05:49:57;95859.88;;;0.33;64.68
73024;BME280;72676;47.526;8.538;2024-01-16T05:52:23;95858.41;;;0.29;64.95
73024;BME280;72676;47.526;8.538;2024-01-16T05:54:50;95857.28;;;0.33;64.41
73024;BME280;72676;47.526;8.538;2024-01-16T05:57:16;95849.75;;;0.30;65.01
73024;BME280;72676;47.526;8.538;2024-01-16T05:59:43;95848.88;;;0.15;64.93
73024;BME280;72676;47.526;8.538;2024-01-16T06:02:09;95845.66;;;0.12;65.27
73024;BME280;72676;47.526;8.538;2024-01-16T06:04:37;95844.00;;;0.11;64.99
73024;BME280;72676;47.526;8.538;2024-01-16T06:07:04;95849.25;;;-0.06;66.18
73024;BME280;72676;47.526;8.538;2024-01-16T06:09:33;95853.81;;;-0.11;66.18
73024;BME280;72676;47.526;8.538;2024-01-16T06:12:00;95853.66;;;-0.08;65.98
73024;BME280;72676;47.526;8.538;2024-01-16T06:14:26;95852.91;;;-0.10;66.04
73024;BME280;72676;47.526;8.538;2024-01-16T06:16:53;95857.91;;;-0.07;66.03
73024;BME280;72676;47.526;8.538;2024-01-16T06:19:19;95861.53;;;-0.11;66.58
73024;BME280;72676;47.526;8.538;2024-01-16T06:21:47;95860.78;;;-0.13;66.80
73024;BME280;72676;47.526;8.538;2024-01-16T06:24:14;95864.72;;;-0.21;66.87
73024;BME280;72676;47.526;8.538;2024-01-16T06:26:40;95859.31;;;-0.17;66.89
73024;BME280;72676;47.526;8.538;2024-01-16T06:29:08;95862.72;;;-0.32;67.60
73024;BME280;72676;47.526;8.538;2024-01-16T06:31:50;95861.13;;;-0.19;67.28
73024;BME280;72676;47.526;8.538;2024-01-16T06:34:16;95856.09;;;-0.20;67.46
73024;BME280;72676;47.526;8.538;2024-01-16T06:36:43;95859.47;;;-0.20;66.77
73024;BME280;72676;47.526;8.538;2024-01-16T06:39:09;95853.41;;;-0.34;67.39
73024;BME280;72676;47.526;8.538;2024-01-16T06:41:42;95860.31;;;-0.35;67.75
73024;BME280;72676;47.526;8.538;2024-01-16T06:44:09;95853.66;;;-0.39;67.38
73024;BME280;72676;47.526;8.538;2024-01-16T06:46:35;95849.84;;;-0.32;68.11
73024;BME280;72676;47.526;8.538;2024-01-16T06:49:02;95847.28;;;-0.32;67.55
73024;BME280;72676;47.526;8.538;2024-01-16T06:51:28;95848.03;;;-0.30;67.80
73024;BME280;72676;47.526;8.538;2024-01-16T06:53:55;95842.72;;;-0.27;67.51
73024;BME280;72676;47.526;8.538;2024-01-16T06:56:21;95839.50;;;-0.30;68.32
73024;BME280;72676;47.526;8.538;2024-01-16T06:58:48;95841.72;;;-0.40;67.81
73024;BME280;72676;47.526;8.538;2024-01-16T07:01:14;95834.59;;;-0.35;68.18
73024;BME280;72676;47.526;8.538;2024-01-16T07:03:41;95834.00;;;-0.40;68.02
73024;BME280;72676;47.526;8.538;2024-01-16T07:06:07;95836.59;;;-0.40;67.62
73024;BME280;72676;47.526;8.538;2024-01-16T07:08:34;95830.19;;;-0.33;67.85
73024;BME280;72676;47.526;8.538;2024-01-16T07:11:01;95827.63;;;-0.33;67.50
73024;BME280;72676;47.526;8.538;2024-01-16T07:13:27;95835.91;;;-0.28;67.26
73024;BME280;72676;47.526;8.538;2024-01-16T07:15:54;95837.81;;;-0.47;67.52
73024;BME280;72676;47.526;8.538;2024-01-16T07:18:21;95836.00;;;-0.60;68.30
73024;BME280;72676;47.526;8.538;2024-01-16T07:20:47;95832.44;;;-0.58;68.07
73024;BME280;72676;47.526;8.538;2024-01-16T07:23:14;95826.97;;;-0.52;67.88
73024;BME280;72676;47.526;8.538;2024-01-16T07:25:40;95831.88;;;-0.63;69.05
73024;BME280;72676;47.526;8.538;2024-01-16T07:28:07;95841.53;;;-0.99;69.86
73024;BME280;72676;47.526;8.538;2024-01-16T07:30:35;95847.50;;;-1.31;71.58
73024;BME280;72676;47.526;8.538;2024-01-16T07:33:01;95844.47;;;-1.39;71.58
73024;BME280;72676;47.526;8.538;2024-01-16T07:35:28;95843.28;;;-1.32;71.09
73024;BME280;72676;47.526;8.538;2024-01-16T07:37:55;95840.50;;;-1.12;70.48
73024;BME280;72676;47.526;8.538;2024-01-16T07:40:21;95840.88;;;-1.02;70.09
73024;BME280;72676;47.526;8.538;2024-01-16T07:42:50;95836.06;;;-0.93;69.42
73024;BME280;72676;47.526;8.538;2024-01-16T07:45:16;95835.56;;;-0.84;69.13
73024;BME280;72676;47.526;8.538;2024-01-16T07:47:42;95835.50;;;-0.82;68.77
73024;BME280;72676;47.526;8.538;2024-01-16T07:50:09;95838.44;;;-0.73;68.92
73024;BME280;72676;47.526;8.538;2024-01-16T07:52:36;95846.72;;;-0.68;68.74
73024;BME280;72676;47.526;8.538;2024-01-16T07:55:04;95836.09;;;-0.62;68.66
73024;BME280;72676;47.526;8.538;2024-01-16T07:57:30;95844.38;;;-0.57;68.03
73024;BME280;72676;47.526;8.538;2024-01-16T07:59:57;95836.84;;;-0.60;67.65
73024;BME280;72676;47.526;8.538;2024-01-16T08:02:32;95840.81;;;-0.85;68.52
73024;BME280;72676;47.526;8.538;2024-01-16T08:04:58;95838.66;;;-0.77;68.02
73024;BME280;72676;47.526;8.538;2024-01-16T08:07:26;95833.53;;;-0.77;68.17
73024;BME280;72676;47.526;8.538;2024-01-16T08:09:53;95828.16;;;-0.73;68.43
73024;BME280;72676;47.526;8.538;2024-01-16T08:12:20;95829.81;;;-0.72;68.07
73024;BME280;72676;47.526;8.538;2024-01-16T08:14:46;95835.59;;;-0.68;68.08
73024;BME280;72676;47.526;8.538;2024-01-16T08:17:12;95836.75;;;-0.74;68.21
73024;BME280;72676;47.526;8.538;2024-01-16T08:19:39;95836.09;;;-0.62;67.89
73024;BME280;72676;47.526;8.538;2024-01-16T08:22:06;95831.63;;;-0.58;67.95
73024;BME280;72676;47.526;8.538;2024-01-16T08:24:34;95835.75;;;-0.71;68.40
73024;BME280;72676;47.526;8.538;2024-01-16T08:27:01;95838.69;;;-0.62;68.40
73024;BME280;72676;47.526;8.538;2024-01-16T08:29:29;95833.94;;;-0.54;68.23
73024;BME280;72676;47.526;8.538;2024-01-16T08:31:55;95838.00;;;-0.50;68.22
73024;BME280;72676;47.526;8.538;2024-01-16T08:34:22;95839.41;;;-0.60;68.61
73024;BME280;72676;47.526;8.538;2024-01-16T08:36:48;95835.00;;;-0.58;68.95
73024;BME280;72676;47.526;8.538;2024-01-16T08:39:15;95838.25;;;-0.70;68.61
73024;BME280;72676;47.526;8.538;2024-01-16T08:41:42;95833.34;;;-0.59;68.81
73024;BME280;72676;47.526;8.538;2024-01-16T08:44:11;95829.97;;;-0.44;68.36
73024;BME280;72676;47.526;8.538;2024-01-16T08:46:38;95829.13;;;-0.44;68.41
73024;BME280;72676;47.526;8.538;2024-01-16T08:49:04;95826.63;;;-0.30;68.15
73024;BME280;72676;47.526;8.538;2024-01-16T08:51:31;95823.97;;;-0.44;68.02
73024;BME280;72676;47.526;8.538;2024-01-16T08:53:57;95822.47;;;-0.33;68.41
73024;BME280;72676;47.526;8.538;2024-01-16T08:56:24;95822.72;;;-0.22;67.67
73024;BME280;72676;47.526;8.538;2024-01-16T08:58:50;95819.81;;;-0.16;67.50
73024;BME280;72676;47.526;8.538;2024-01-16T09:01:16;95819.06;;;-0.18;67.33
73024;BME280;72676;47.526;8.538;2024-01-16T09:03:43;95812.66;;;-0.11;67.39
73024;BME280;72676;47.526;8.538;2024-01-16T09:06:10;95814.63;;;-0.01;67.18
73024;BME280;72676;47.526;8.538;2024-01-16T09:08:37;95815.75;;;0.09;66.96
73024;BME280;72676;47.526;8.538;2024-01-16T09:11:03;95815.88;;;0.22;66.81
73024;BME280;72676;47.526;8.538;2024-01-16T09:13:30;95807.13;;;0.10;67.22
73024;BME280;72676;47.526;8.538;2024-01-16T09:15:56;95813.50;;;0.19;66.78
73024;BME280;72676;47.526;8.538;2024-01-16T09:18:23;95819.19;;;0.24;67.09
73024;BME280;72676;47.526;8.538;2024-01-16T09:20:50;95814.38;;;0.33;66.85
73024;BME280;72676;47.526;8.538;2024-01-16T09:23:16;95814.00;;;0.39;66.26
73024;BME280;72676;47.526;8.538;2024-01-16T09:25:43;95815.88;;;0.51;66.46
73024;BME280;72676;47.526;8.538;2024-01-16T09:28:13;95814.69;;;0.57;65.83
73024;BME280;72676;47.526;8.538;2024-01-16T09:30:41;95822.03;;;0.63;65.69
73024;BME280;72676;47.526;8.538;2024-01-16T09:33:08;95815.06;;;0.65;65.48
73024;BME280;72676;47.526;8.538;2024-01-16T09:35:37;95809.00;;;0.66;65.46
73024;BME280;72676;47.526;8.538;2024-01-16T09:38:03;95807.22;;;0.66;65.82
73024;BME280;72676;47.526;8.538;2024-01-16T09:40:31;95810.09;;;0.76;64.96
73024;BME280;72676;47.526;8.538;2024-01-16T09:42:58;95807.91;;;0.84;64.82
73024;BME280;72676;47.526;8.538;2024-01-16T09:45:24;95811.56;;;0.80;64.97
73024;BME280;72676;47.526;8.538;2024-01-16T09:47:51;95822.06;;;0.77;65.12
73024;BME280;72676;47.526;8.538;2024-01-16T09:50:19;95820.94;;;0.81;64.64
73024;BME280;72676;47.526;8.538;2024-01-16T09:52:46;95823.91;;;0.89;65.19
73024;BME280;72676;47.526;8.538;2024-01-16T09:55:16;95825.13;;;0.97;64.83
73024;BME280;72676;47.526;8.538;2024-01-16T09:57:45;95807.72;;;1.01;64.70
73024;BME280;72676;47.526;8.538;2024-01-16T10:00:13;95814.59;;;1.00;64.86
73024;BME280;72676;47.526;8.538;2024-01-16T10:02:40;95803.47;;;1.14;64.18
73024;BME280;72676;47.526;8.538;2024-01-16T10:05:08;95801.53;;;1.17;64.16
73024;BME280;72676;47.526;8.538;2024-01-16T10:07:37;95803.25;;;1.17;63.96
73024;BME280;72676;47.526;8.538;2024-01-16T10:10:04;95794.25;;;1.10;64.10
73024;BME280;72676;47.526;8.538;2024-01-16T10:12:32;95800.50;;;1.06;64.43
73024;BME280;72676;47.526;8.538;2024-01-16T10:14:59;95791.84;;;1.07;63.96
73024;BME280;72676;47.526;8.538;2024-01-16T10:17:36;95797.53;;;1.26;63.41
73024;BME280;72676;47.526;8.538;2024-01-16T10:20:05;95789.16;;;1.36;63.51
73024;BME280;72676;47.526;8.538;2024-01-16T10:22:32;95796.22;;;1.47;62.81
73024;BME280;72676;47.526;8.538;2024-01-16T10:25:10;95792.50;;;1.24;63.62
73024;BME280;72676;47.526;8.538;2024-01-16T10:27:43;95793.97;;;1.55;63.19
73024;BME280;72676;47.526;8.538;2024-01-16T10:30:09;95789.06;;;1.64;62.26
73024;BME280;72676;47.526;8.538;2024-01-16T10:32:38;95788.69;;;1.70;62.80
73024;BME280;72676;47.526;8.538;2024-01-16T10:35:09;95788.19;;;1.51;62.62
73024;BME280;72676;47.526;8.538;2024-01-16T10:37:45;95776.38;;;1.61;62.86
73024;BME280;72676;47.526;8.538;2024-01-16T10:42:42;95782.97;;;1.39;63.81
73024;BME280;72676;47.526;8.538;2024-01-16T10:45:16;95778.97;;;1.61;63.17
73024;BME280;72676;47.526;8.538;2024-01-16T10:47:44;95770.50;;;1.72;62.72
73024;BME280;72676;47.526;8.538;2024-01-16T10:50:12;95770.63;;;1.70;63.07
73024;BME280;72676;47.526;8.538;2024-01-16T10:52:48;95776.44;;;1.86;62.32
73024;BME280;72676;47.526;8.538;2024-01-16T10:55:22;95774.50;;;1.90;61.78
73024;BME280;72676;47.526;8.538;2024-01-16T10:57:49;95771.16;;;2.02;61.79
73024;BME280;72676;47.526;8.538;2024-01-16T11:00:20;95772.06;;;2.13;61.40
73024;BME280;72676;47.526;8.538;2024-01-16T11:03:01;95761.06;;;2.24;61.31
73024;BME280;72676;47.526;8.538;2024-01-16T11:05:33;95754.03;;;2.26;60.87
73024;BME280;72676;47.526;8.538;2024-01-16T11:08:00;95744.31;;;2.29;60.67
73024;BME280;72676;47.526;8.538;2024-01-16T11:10:33;95747.53;;;2.33;60.82
73024;BME280;72676;47.526;8.538;2024-01-16T11:13:02;95738.75;;;2.35;61.25
73024;BME280;72676;47.526;8.538;2024-01-16T11:15:31;95739.88;;;2.44;61.04
73024;BME280;72676;47.526;8.538;2024-01-16T11:17:59;95736.59;;;2.54;60.89
73024;BME280;72676;47.526;8.538;2024-01-16T11:20:27;95736.59;;;2.67;60.37
73024;BME280;72676;47.526;8.538;2024-01-16T11:23:14;95732.63;;;2.73;59.70
73024;BME280;72676;47.526;8.538;2024-01-16T11:25:41;95729.22;;;2.85;60.52
73024;BME280;72676;47.526;8.538;2024-01-16T11:28:13;95718.97;;;2.96;60.25
73024;BME280;72676;47.526;8.538;2024-01-16T11:30:40;95724.84;;;2.98;59.64
73024;BME280;72676;47.526;8.538;2024-01-16T11:36:00;95715.84;;;3.04;59.18
73024;BME280;72676;47.526;8.538;2024-01-16T11:38:29;95722.97;;;3.00;59.43
73024;BME280;72676;47.526;8.538;2024-01-16T11:40:59;95711.34;;;3.18;59.13
73024;BME280;72676;47.526;8.538;2024-01-16T11:45:59;95698.22;;;3.21;58.51
73024;BME280;72676;47.526;8.538;2024-01-16T11:48:26;95698.50;;;3.29;58.17
73024;BME280;72676;47.526;8.538;2024-01-16T11:50:54;95695.34;;;3.13;58.27
73024;BME280;72676;47.526;8.538;2024-01-16T12:01:44;95675.19;;;3.06;58.64
73024;BME280;72676;47.526;8.538;2024-01-16T12:04:11;95678.94;;;3.25;58.16
73024;BME280;72676;47.526;8.538;2024-01-16T12:06:41;95673.66;;;3.50;58.29
73024;BME280;72676;47.526;8.538;2024-01-16T12:09:12;95673.72;;;3.61;58.36
73024;BME280;72676;47.526;8.538;2024-01-16T12:11:42;95664.91;;;3.64;57.71
73024;BME280;72676;47.526;8.538;2024-01-16T12:14:12;95667.81;;;3.59;57.44
73024;BME280;72676;47.526;8.538;2024-01-16T12:16:39;95667.28;;;3.78;57.32
73024;BME280;72676;47.526;8.538;2024-01-16T12:19:09;95662.03;;;3.90;56.99
73024;BME280;72676;47.526;8.538;2024-01-16T12:21:41;95650.81;;;4.13;56.49
73024;BME280;72676;47.526;8.538;2024-01-16T12:24:08;95648.81;;;4.28;55.90
73024;BME280;72676;47.526;8.538;2024-01-16T12:26:39;95651.41;;;4.28;55.26
73024;BME280;72676;47.526;8.538;2024-01-16T12:29:05;95668.50;;;4.41;55.38
73024;BME280;72676;47.526;8.538;2024-01-16T12:31:32;95658.50;;;4.48;55.06
73024;BME280;72676;47.526;8.538;2024-01-16T12:34:08;95658.38;;;4.38;54.83
73024;BME280;72676;47.526;8.538;2024-01-16T12:36:36;95657.44;;;4.39;55.18
73024;BME280;72676;47.526;8.538;2024-01-16T12:39:04;95655.31;;;4.44;55.77
73024;BME280;72676;47.526;8.538;2024-01-16T12:41:35;95649.19;;;4.45;55.44
73024;BME280;72676;47.526;8.538;2024-01-16T12:44:08;95643.53;;;4.51;55.29
73024;BME280;72676;47.526;8.538;2024-01-16T12:46:43;95633.28;;;4.72;55.84
73024;BME280;72676;47.526;8.538;2024-01-16T12:49:09;95624.66;;;4.93;55.92
73024;BME280;72676;47.526;8.538;2024-01-16T12:51:38;95624.56;;;5.26;54.34
73024;BME280;72676;47.526;8.538;2024-01-16T12:54:15;95613.31;;;5.05;53.77
73024;BME280;72676;47.526;8.538;2024-01-16T12:56:43;95617.44;;;5.08;54.53
73024;BME280;72676;47.526;8.538;2024-01-16T12:59:13;95612.88;;;5.32;54.20
73024;BME280;72676;47.526;8.538;2024-01-16T13:01:44;95605.50;;;5.48;53.50
73024;BME280;72676;47.526;8.538;2024-01-16T13:04:12;95606.09;;;5.51;53.33
73024;BME280;72676;47.526;8.538;2024-01-16T13:06:44;95610.28;;;5.63;53.43
73024;BME280;72676;47.526;8.538;2024-01-16T13:09:13;95602.09;;;5.67;52.68
73024;BME280;72676;47.526;8.538;2024-01-16T13:11:50;95589.31;;;5.75;52.19
73024;BME280;72676;47.526;8.538;2024-01-16T13:14:19;95593.50;;;5.67;52.53
73024;BME280;72676;47.526;8.538;2024-01-16T13:16:52;95580.06;;;5.62;52.17
73024;BME280;72676;47.526;8.538;2024-01-16T13:19:21;95575.91;;;5.70;52.16
73024;BME280;72676;47.526;8.538;2024-01-16T13:21:48;95580.00;;;5.73;52.86
73024;BME280;72676;47.526;8.538;2024-01-16T13:24:15;95578.00;;;5.97;52.32
73024;BME280;72676;47.526;8.538;2024-01-16T13:26:44;95568.09;;;6.11;52.16